createdAt,value
2017-08-29T00:00:16.356Z,73.90
2017-08-29T00:02:44.679Z,74.20
2017-08-29T00:05:13.019Z,74.20
2017-08-29T00:07:41.314Z,74.40
2017-08-29T00:10:09.640Z,74.10
2017-08-29T00:12:37.970Z,74.00
2017-08-29T00:15:06.266Z,73.50
2017-08-29T00:17:34.601Z,73.50
2017-08-29T00:20:02.904Z,73.60
2017-08-29T00:22:31.223Z,74.20
2017-08-29T00:24:59.551Z,74.70
2017-08-29T00:27:27.847Z,74.90
2017-08-29T00:29:56.170Z,74.90
2017-08-29T00:32:24.502Z,74.10
2017-08-29T00:34:52.793Z,74.10
2017-08-29T00:37:21.166Z,74.30
2017-08-29T00:39:49.476Z,74.80
2017-08-29T00:42:17.797Z,74.10
2017-08-29T00:44:46.136Z,74.50
2017-08-29T00:47:14.434Z,75.80
2017-08-29T00:49:42.738Z,74.90
2017-08-29T00:52:11.090Z,74.90
2017-08-29T00:54:39.395Z,74.90
2017-08-29T00:57:07.716Z,74.60
2017-08-29T00:59:36.065Z,75.00
2017-08-29T01:02:04.366Z,75.20
2017-08-29T01:04:32.662Z,75.10
2017-08-29T01:07:00.985Z,75.00
2017-08-29T01:09:29.283Z,75.20
2017-08-29T01:11:57.616Z,75.00
2017-08-29T01:14:25.906Z,75.20
2017-08-29T01:16:54.205Z,75.50
2017-08-29T01:19:22.534Z,75.80
2017-08-29T01:21:50.856Z,76.20
2017-08-29T01:24:19.162Z,76.40
2017-08-29T01:26:47.504Z,76.90
2017-08-29T01:29:15.798Z,77.10
2017-08-29T01:31:44.092Z,78.10
2017-08-29T01:37:22.785Z,78.40
2017-08-29T01:39:51.108Z,78.10
2017-08-29T01:42:19.417Z,78.20
2017-08-29T01:44:47.744Z,78.20
2017-08-29T01:47:16.037Z,78.40
2017-08-29T01:49:44.377Z,78.20
2017-08-29T01:52:12.719Z,78.50
2017-08-29T01:54:41.012Z,78.70
2017-08-29T01:57:09.359Z,78.60
2017-08-29T01:59:37.654Z,78.60
2017-08-29T02:02:05.985Z,78.60
2017-08-29T02:04:34.369Z,78.30
2017-08-29T02:07:02.689Z,77.70
2017-08-29T02:09:30.980Z,77.40
2017-08-29T02:11:59.325Z,77.70
2017-08-29T02:14:27.624Z,77.50
2017-08-29T02:16:55.946Z,77.70
2017-08-29T02:19:24.283Z,78.30
2017-08-29T02:21:52.582Z,78.30
2017-08-29T02:24:20.879Z,78.50
2017-08-29T02:26:49.213Z,80.00
2017-08-29T02:29:17.517Z,79.40
2017-08-29T02:31:45.815Z,79.50
2017-08-29T02:34:14.147Z,79.20
2017-08-29T02:36:42.443Z,79.50
2017-08-29T02:39:10.815Z,79.50
2017-08-29T02:41:39.210Z,79.80
2017-08-29T02:44:07.513Z,79.80
2017-08-29T02:46:35.825Z,79.80
2017-08-29T02:49:04.206Z,80.00
2017-08-29T02:51:32.518Z,80.00
2017-08-29T02:54:00.843Z,80.30
2017-08-29T02:56:29.198Z,80.40
2017-08-29T02:58:57.496Z,81.50
2017-08-29T03:01:25.791Z,80.60
2017-08-29T03:03:54.141Z,80.60
2017-08-29T03:06:22.461Z,80.60
2017-08-29T03:08:50.786Z,80.40
2017-08-29T03:11:19.118Z,81.40
2017-08-29T03:13:47.420Z,80.40
2017-08-29T03:16:15.717Z,80.30
2017-08-29T03:18:44.050Z,80.40
2017-08-29T03:21:12.371Z,80.50
2017-08-29T03:23:40.670Z,80.70
2017-08-29T03:26:09.002Z,80.40
2017-08-29T03:28:37.305Z,80.80
2017-08-29T03:31:05.646Z,80.10
2017-08-29T03:33:33.998Z,80.10
2017-08-29T03:36:02.323Z,80.30
2017-08-29T03:38:30.648Z,80.60
2017-08-29T03:40:58.965Z,80.50
2017-08-29T03:43:27.301Z,80.60
2017-08-29T03:45:55.610Z,80.80
2017-08-29T03:48:23.916Z,80.70
2017-08-29T03:50:52.245Z,81.00
2017-08-29T03:53:20.581Z,81.40
2017-08-29T03:55:48.890Z,81.80
2017-08-29T03:58:17.235Z,81.90
2017-08-29T04:00:45.574Z,81.40
2017-08-29T04:03:13.903Z,82.20
2017-08-29T04:05:42.297Z,81.60
2017-08-29T04:08:10.619Z,81.30
2017-08-29T04:10:38.920Z,81.00
2017-08-29T04:15:41.281Z,81.20
2017-08-29T04:18:09.593Z,81.10
2017-08-29T04:20:37.898Z,81.10
2017-08-29T04:23:06.237Z,81.80
2017-08-29T04:25:34.574Z,81.80
2017-08-29T04:28:02.878Z,81.90
2017-08-29T04:30:31.241Z,81.90
2017-08-29T04:32:59.536Z,81.80
2017-08-29T04:35:27.876Z,81.80
2017-08-29T04:37:56.258Z,82.50
2017-08-29T04:40:24.553Z,81.80
2017-08-29T04:42:52.854Z,82.00
2017-08-29T04:45:21.195Z,82.10
2017-08-29T04:47:49.487Z,82.00
2017-08-29T04:50:17.781Z,81.90
2017-08-29T04:52:46.106Z,81.90
2017-08-29T04:55:14.439Z,81.80
2017-08-29T04:57:42.766Z,81.90
2017-08-29T05:00:11.110Z,82.00
2017-08-29T05:02:39.417Z,81.90
2017-08-29T05:05:07.717Z,81.90
2017-08-29T05:07:36.046Z,81.70
2017-08-29T05:10:04.339Z,81.40
2017-08-29T05:12:32.625Z,81.10
2017-08-29T05:15:00.966Z,80.60
2017-08-29T05:17:29.308Z,80.20
2017-08-29T05:19:57.638Z,79.70
2017-08-29T05:22:26.121Z,79.20
2017-08-29T05:24:54.445Z,79.40
2017-08-29T05:27:22.773Z,79.40
2017-08-29T05:29:51.141Z,78.90
2017-08-29T05:32:19.437Z,79.00
2017-08-29T05:34:47.737Z,78.40
2017-08-29T05:37:16.065Z,77.90
2017-08-29T05:39:44.400Z,77.30
2017-08-29T05:42:12.803Z,76.80
2017-08-29T05:44:41.172Z,76.60
2017-08-29T05:47:09.479Z,76.10
2017-08-29T05:49:37.802Z,70.10
2017-08-29T05:52:06.169Z,61.50
2017-08-29T05:54:34.484Z,55.80
2017-08-29T05:57:02.807Z,51.70
2017-08-29T05:59:31.150Z,48.50
2017-08-29T06:01:59.450Z,45.00
2017-08-29T06:04:27.752Z,43.40
2017-08-29T06:06:56.093Z,42.30
2017-08-29T06:09:24.425Z,40.80
2017-08-29T06:11:52.730Z,39.30
2017-08-29T06:14:21.073Z,38.70
2017-08-29T06:16:49.414Z,37.10
2017-08-29T06:19:17.752Z,36.80
2017-08-29T06:21:46.042Z,35.60
2017-08-29T06:24:14.374Z,35.00
2017-08-29T06:26:42.677Z,34.30
2017-08-29T06:29:10.973Z,33.60
2017-08-29T06:31:39.376Z,33.40
2017-08-29T06:34:07.715Z,33.10
2017-08-29T06:36:36.005Z,33.00
2017-08-29T06:39:04.349Z,32.30
2017-08-29T06:41:32.649Z,32.60
2017-08-29T06:44:00.951Z,32.30
2017-08-29T06:46:29.285Z,32.20
2017-08-29T06:48:57.631Z,31.70
2017-08-29T06:51:25.956Z,31.70
2017-08-29T06:53:54.299Z,30.80
2017-08-29T06:56:22.593Z,30.80
2017-08-29T06:58:50.906Z,29.90
2017-08-29T07:01:19.231Z,30.30
2017-08-29T07:03:47.530Z,29.90
2017-08-29T07:06:15.875Z,29.40
2017-08-29T07:08:44.271Z,28.40
2017-08-29T07:11:12.596Z,28.90
2017-08-29T07:13:40.904Z,28.80
2017-08-29T07:16:09.259Z,28.40
2017-08-29T07:18:37.609Z,28.70
2017-08-29T07:21:05.915Z,28.50
2017-08-29T07:23:34.255Z,28.20
2017-08-29T07:26:02.574Z,27.00
2017-08-29T07:28:30.886Z,27.80
2017-08-29T07:30:59.260Z,27.40
2017-08-29T07:33:27.569Z,27.30
2017-08-29T07:38:35.193Z,27.30
2017-08-29T07:41:03.496Z,27.10
2017-08-29T07:43:31.801Z,27.00
2017-08-29T07:46:00.140Z,26.90
2017-08-29T07:48:28.441Z,26.10
2017-08-29T07:50:56.743Z,26.40
2017-08-29T07:53:25.106Z,26.80
2017-08-29T07:55:53.421Z,27.80
2017-08-29T07:58:21.727Z,26.70
2017-08-29T08:00:50.073Z,26.40
2017-08-29T08:03:18.375Z,26.20
2017-08-29T08:05:46.677Z,26.70
2017-08-29T08:08:14.993Z,27.00
2017-08-29T08:10:43.295Z,26.60
2017-08-29T08:13:11.669Z,26.10
2017-08-29T08:15:40.000Z,26.80
2017-08-29T08:18:08.302Z,26.60
2017-08-29T08:20:36.653Z,27.20
2017-08-29T08:23:04.992Z,27.90
2017-08-29T08:25:33.306Z,28.20
2017-08-29T08:28:01.678Z,28.70
2017-08-29T08:30:29.980Z,27.30
2017-08-29T08:32:58.276Z,28.20
2017-08-29T08:35:26.611Z,27.70
2017-08-29T08:37:54.941Z,29.10
2017-08-29T08:40:23.265Z,29.30
2017-08-29T08:42:51.603Z,29.60
2017-08-29T08:45:19.909Z,28.90
2017-08-29T08:47:48.234Z,28.80
2017-08-29T08:50:16.634Z,29.30
2017-08-29T08:52:44.947Z,29.70
2017-08-29T08:55:13.259Z,29.10
2017-08-29T08:57:41.599Z,29.50
2017-08-29T09:00:09.897Z,29.70
2017-08-29T09:02:38.195Z,29.20
2017-08-29T09:05:06.531Z,29.60
2017-08-29T09:07:34.825Z,30.00
2017-08-29T09:10:03.133Z,30.80
2017-08-29T09:12:31.501Z,31.10
2017-08-29T09:14:59.797Z,30.80
2017-08-29T09:17:28.097Z,31.50
2017-08-29T09:19:56.430Z,32.10
2017-08-29T09:22:24.730Z,32.30
2017-08-29T09:24:53.035Z,32.90
2017-08-29T09:27:21.402Z,32.60
2017-08-29T09:29:49.725Z,32.40
2017-08-29T09:32:18.033Z,32.30
2017-08-29T09:34:46.456Z,31.70
2017-08-29T09:37:14.758Z,31.80
2017-08-29T09:39:43.053Z,30.80
2017-08-29T09:42:11.426Z,30.90
2017-08-29T09:44:39.759Z,31.20
2017-08-29T09:47:08.106Z,32.70
2017-08-29T09:49:36.474Z,32.80
2017-08-29T09:52:04.778Z,32.70
2017-08-29T09:54:33.098Z,33.30
2017-08-29T09:57:01.453Z,32.80
2017-08-29T09:59:29.765Z,32.00
2017-08-29T10:01:58.066Z,31.70
2017-08-29T10:04:26.429Z,32.10
2017-08-29T10:06:54.737Z,30.60
2017-08-29T10:09:23.027Z,30.70
2017-08-29T10:11:51.373Z,31.00
2017-08-29T10:14:19.671Z,30.30
2017-08-29T10:16:47.979Z,31.60
2017-08-29T10:19:16.313Z,31.10
2017-08-29T10:21:44.625Z,32.00
2017-08-29T10:24:12.931Z,32.10
2017-08-29T10:26:41.272Z,30.80
2017-08-29T10:29:09.584Z,33.10
2017-08-29T10:31:37.879Z,31.70
2017-08-29T10:34:06.214Z,32.70
2017-08-29T10:36:34.527Z,33.20
2017-08-29T10:39:02.816Z,33.40
2017-08-29T10:41:31.150Z,32.60
2017-08-29T10:43:59.478Z,31.50
2017-08-29T10:46:27.784Z,32.20
2017-08-29T10:48:56.120Z,31.60
2017-08-29T10:51:24.424Z,33.30
2017-08-29T10:53:52.726Z,33.50
2017-08-29T10:56:21.064Z,32.90
2017-08-29T10:58:49.363Z,33.00
2017-08-29T11:01:17.658Z,32.90
2017-08-29T11:03:46.018Z,33.30
2017-08-29T11:06:14.328Z,33.30
2017-08-29T11:08:42.633Z,33.70
2017-08-29T11:11:10.975Z,33.80
2017-08-29T11:13:39.288Z,34.20
2017-08-29T11:16:07.592Z,34.40
2017-08-29T11:18:35.928Z,33.20
2017-08-29T11:21:04.313Z,33.00
2017-08-29T11:23:32.624Z,32.80
2017-08-29T11:26:00.993Z,32.90
2017-08-29T11:28:29.289Z,32.60
2017-08-29T11:30:57.582Z,31.50
2017-08-29T11:33:25.922Z,30.80
2017-08-29T11:35:54.254Z,31.70
2017-08-29T11:38:22.583Z,33.80
2017-08-29T11:40:50.917Z,34.70
2017-08-29T11:43:19.228Z,34.30
2017-08-29T11:45:47.537Z,34.60
2017-08-29T11:48:15.883Z,32.50
2017-08-29T11:50:44.190Z,32.80
2017-08-29T11:53:12.512Z,32.50
2017-08-29T11:55:40.871Z,33.30
2017-08-29T11:58:09.184Z,33.30
2017-08-29T12:00:37.497Z,33.80
2017-08-29T12:03:05.890Z,34.30
2017-08-29T12:05:34.225Z,34.30
2017-08-29T12:08:02.530Z,35.20
2017-08-29T12:10:30.878Z,35.70
2017-08-29T12:12:59.183Z,36.80
2017-08-29T12:15:27.477Z,36.40
2017-08-29T12:17:55.826Z,35.50
2017-08-29T12:20:24.192Z,34.90
2017-08-29T12:22:52.493Z,35.00
2017-08-29T12:25:20.830Z,34.90
2017-08-29T12:27:49.155Z,35.50
2017-08-29T12:30:17.470Z,34.20
2017-08-29T12:32:45.803Z,34.20
2017-08-29T12:35:14.099Z,34.30
2017-08-29T12:37:42.406Z,34.40
2017-08-29T12:40:10.752Z,34.60
2017-08-29T12:42:39.060Z,36.30
2017-08-29T12:45:07.403Z,35.60
2017-08-29T12:47:35.737Z,36.70
2017-08-29T12:50:04.048Z,37.00
2017-08-29T12:52:32.364Z,36.10
2017-08-29T12:55:00.711Z,34.50
2017-08-29T12:57:29.009Z,34.00
2017-08-29T12:59:57.305Z,33.90
2017-08-29T13:02:25.652Z,34.30
2017-08-29T13:04:53.987Z,34.80
2017-08-29T13:07:22.290Z,34.70
2017-08-29T13:09:50.630Z,34.30
2017-08-29T13:12:18.941Z,34.20
2017-08-29T13:14:47.242Z,35.00
2017-08-29T13:17:15.588Z,35.70
2017-08-29T13:19:43.892Z,35.30
2017-08-29T13:22:12.218Z,34.90
2017-08-29T13:24:40.577Z,33.10
2017-08-29T13:27:08.882Z,33.30
2017-08-29T13:29:37.179Z,33.80
2017-08-29T13:32:05.806Z,33.80
2017-08-29T13:34:34.115Z,34.60
2017-08-29T13:37:02.413Z,35.40
2017-08-29T13:39:30.751Z,35.40
2017-08-29T13:41:59.049Z,33.40
2017-08-29T13:44:27.352Z,31.80
2017-08-29T13:46:55.680Z,32.90
2017-08-29T13:49:23.994Z,33.00
2017-08-29T13:51:52.299Z,32.30
2017-08-29T13:54:20.631Z,32.90
2017-08-29T13:56:48.925Z,33.20
2017-08-29T13:59:17.225Z,33.30
2017-08-29T14:01:45.578Z,33.30
2017-08-29T14:04:13.878Z,33.20
2017-08-29T14:06:42.198Z,34.10
2017-08-29T14:09:10.546Z,34.10
2017-08-29T14:11:38.856Z,34.30
2017-08-29T14:14:07.159Z,31.30
2017-08-29T14:16:35.489Z,31.50
2017-08-29T14:19:03.797Z,31.20
2017-08-29T14:21:32.129Z,32.40
2017-08-29T14:24:01.191Z,30.30
2017-08-29T14:26:29.504Z,30.80
2017-08-29T14:28:57.841Z,30.80
2017-08-29T14:31:26.136Z,32.50
2017-08-29T14:33:54.436Z,32.80
2017-08-29T14:36:22.774Z,33.10
2017-08-29T14:38:51.073Z,32.50
2017-08-29T14:41:19.372Z,33.20
2017-08-29T14:43:47.748Z,32.20
2017-08-29T14:46:16.081Z,31.70
2017-08-29T14:49:02.253Z,31.90
2017-08-29T14:51:30.556Z,33.10
2017-08-29T14:53:58.867Z,32.90
2017-08-29T14:56:27.186Z,32.90
2017-08-29T14:58:55.501Z,33.70
2017-08-29T15:01:23.922Z,32.70
2017-08-29T15:03:52.238Z,32.40
2017-08-29T15:06:20.562Z,32.10
2017-08-29T15:08:48.997Z,32.20
2017-08-29T15:11:17.289Z,33.30
2017-08-29T15:13:45.614Z,32.60
2017-08-29T15:16:13.958Z,32.40
2017-08-29T15:18:42.254Z,33.00
2017-08-29T15:21:10.592Z,33.50
2017-08-29T15:23:38.958Z,34.30
2017-08-29T15:26:07.255Z,34.60
2017-08-29T15:28:35.561Z,35.40
2017-08-29T15:31:03.917Z,35.10
2017-08-29T15:33:32.227Z,34.60
2017-08-29T15:36:00.525Z,35.20
2017-08-29T15:38:28.861Z,36.20
2017-08-29T15:40:57.183Z,36.50
2017-08-29T15:43:25.506Z,37.00
2017-08-29T15:45:53.836Z,36.80
2017-08-29T15:48:22.134Z,36.70
2017-08-29T15:50:50.486Z,36.60
2017-08-29T15:53:18.778Z,36.50
2017-08-29T15:55:47.109Z,37.10
2017-08-29T15:58:15.491Z,36.50
2017-08-29T16:00:43.789Z,36.60
2017-08-29T16:03:12.148Z,37.20
2017-08-29T16:05:40.504Z,37.80
2017-08-29T16:08:08.832Z,37.50
2017-08-29T16:10:37.134Z,37.40
2017-08-29T16:13:05.466Z,37.60
2017-08-29T16:15:34.333Z,37.50
2017-08-29T16:18:02.664Z,37.60
2017-08-29T16:20:31.025Z,37.90
2017-08-29T16:22:59.320Z,37.30
2017-08-29T16:25:27.635Z,37.80
2017-08-29T16:27:56.000Z,38.20
2017-08-29T16:30:24.326Z,37.30
2017-08-29T16:32:52.619Z,37.50
2017-08-29T16:35:20.956Z,37.80
2017-08-29T16:37:49.254Z,38.40
2017-08-29T16:40:17.580Z,39.00
2017-08-29T16:42:45.917Z,39.60
2017-08-29T16:45:14.316Z,39.30
2017-08-29T16:47:42.625Z,39.80
2017-08-29T16:50:10.968Z,40.00
2017-08-29T16:52:39.267Z,39.10
2017-08-29T16:55:07.571Z,39.60
2017-08-29T16:57:35.916Z,39.60
2017-08-29T17:00:04.229Z,39.50
2017-08-29T17:02:32.529Z,40.20
2017-08-29T17:05:00.876Z,39.20
2017-08-29T17:07:29.177Z,39.50
2017-08-29T17:09:57.513Z,38.90
2017-08-29T17:12:25.983Z,39.80
2017-08-29T17:14:54.338Z,40.30
2017-08-29T17:17:22.659Z,41.90
2017-08-29T17:19:51.013Z,42.50
2017-08-29T17:22:19.327Z,43.30
2017-08-29T17:24:47.622Z,43.30
2017-08-29T17:27:16.013Z,43.10
2017-08-29T17:29:44.315Z,44.60
2017-08-29T17:32:12.615Z,41.70
2017-08-29T17:34:40.963Z,40.60
2017-08-29T17:37:09.267Z,43.40
2017-08-29T17:39:37.596Z,44.60
2017-08-29T17:42:05.995Z,45.30
2017-08-29T17:44:34.297Z,45.80
2017-08-29T17:47:02.611Z,47.80
2017-08-29T17:49:31.006Z,49.10
2017-08-29T17:51:59.309Z,50.00
2017-08-29T17:54:27.637Z,50.40
2017-08-29T17:56:56.019Z,50.10
2017-08-29T17:59:24.322Z,50.60
2017-08-29T18:01:52.618Z,51.60
2017-08-29T18:04:21.851Z,51.80
2017-08-29T18:06:50.157Z,52.50
2017-08-29T18:09:18.457Z,52.40
2017-08-29T18:11:46.851Z,52.10
2017-08-29T18:14:15.148Z,51.40
2017-08-29T18:16:43.483Z,52.00
2017-08-29T18:19:11.848Z,52.90
2017-08-29T18:21:40.157Z,53.20
2017-08-29T18:24:08.471Z,53.10
2017-08-29T18:26:36.862Z,53.90
2017-08-29T18:29:05.161Z,53.70
2017-08-29T18:31:33.468Z,53.70
2017-08-29T18:34:01.855Z,54.30
2017-08-29T18:36:30.152Z,55.40
2017-08-29T18:38:58.461Z,55.10
2017-08-29T18:41:26.802Z,54.90
2017-08-29T18:43:55.232Z,54.90
2017-08-29T18:46:23.562Z,55.60
2017-08-29T18:48:51.954Z,55.30
2017-08-29T18:51:21.037Z,55.80
2017-08-29T18:53:50.649Z,57.70
2017-08-29T18:56:18.965Z,56.70
2017-08-29T18:58:47.280Z,57.20
2017-08-29T19:01:15.645Z,57.70
2017-08-29T19:03:43.949Z,57.80
2017-08-29T19:06:12.249Z,57.10
2017-08-29T19:08:40.611Z,57.10
2017-08-29T19:11:08.971Z,57.60
2017-08-29T19:13:37.293Z,58.60
2017-08-29T19:16:05.641Z,58.50
2017-08-29T19:18:33.949Z,58.30
2017-08-29T19:21:02.300Z,58.30
2017-08-29T19:23:30.663Z,59.00
2017-08-29T19:25:59.053Z,59.50
2017-08-29T19:28:27.362Z,60.00
2017-08-29T19:30:55.714Z,60.20
2017-08-29T19:33:24.010Z,60.70
2017-08-29T19:35:52.407Z,61.00
2017-08-29T19:38:21.452Z,62.00
2017-08-29T19:40:49.757Z,61.00
2017-08-29T19:43:18.101Z,61.60
2017-08-29T19:45:46.417Z,61.30
2017-08-29T19:48:14.761Z,62.70
2017-08-29T19:50:43.093Z,61.70
2017-08-29T19:53:11.399Z,61.50
2017-08-29T19:55:39.750Z,61.80
2017-08-29T19:58:08.110Z,62.00
2017-08-29T20:00:36.408Z,62.50
2017-08-29T20:03:04.771Z,63.10
2017-08-29T20:05:33.589Z,64.40
2017-08-29T20:08:01.901Z,64.80
2017-08-29T20:10:30.209Z,64.90
2017-08-29T20:12:58.596Z,64.90
2017-08-29T20:15:26.907Z,64.80
2017-08-29T20:17:55.210Z,65.30
2017-08-29T20:20:24.161Z,65.30
2017-08-29T20:22:52.533Z,66.20
2017-08-29T20:25:20.924Z,65.60
2017-08-29T20:27:49.345Z,65.30
2017-08-29T20:30:17.638Z,65.00
2017-08-29T20:32:46.005Z,63.90
2017-08-29T20:35:14.316Z,63.70
2017-08-29T20:37:42.618Z,63.70
2017-08-29T20:40:10.984Z,64.00
2017-08-29T20:42:39.288Z,63.20
2017-08-29T20:45:07.585Z,63.60
2017-08-29T20:47:35.950Z,64.40
2017-08-29T20:50:04.256Z,64.30
2017-08-29T20:52:32.609Z,64.20
2017-08-29T20:55:01.675Z,63.30
2017-08-29T20:57:29.985Z,64.00
2017-08-29T20:59:58.351Z,63.40
2017-08-29T21:02:26.657Z,63.40
2017-08-29T21:04:55.012Z,62.80
2017-08-29T21:07:24.293Z,63.30
2017-08-29T21:09:53.134Z,62.90
2017-08-29T21:12:22.393Z,63.10
2017-08-29T21:14:50.748Z,63.40
2017-08-29T21:17:19.124Z,63.70
2017-08-29T21:19:47.423Z,64.00
2017-08-29T21:22:15.735Z,64.10
2017-08-29T21:24:44.107Z,63.90
2017-08-29T21:27:12.406Z,64.20
2017-08-29T21:29:40.702Z,64.50
2017-08-29T21:32:09.024Z,64.70
2017-08-29T21:34:37.376Z,65.70
2017-08-29T21:37:05.698Z,64.90
2017-08-29T21:39:34.009Z,64.60
2017-08-29T21:42:02.350Z,65.40
2017-08-29T21:44:30.665Z,64.50
2017-08-29T21:46:59.005Z,64.70
2017-08-29T21:49:27.306Z,65.10
2017-08-29T21:51:55.695Z,65.10
2017-08-29T21:54:24.033Z,65.00
2017-08-29T21:56:52.346Z,65.30
2017-08-29T21:59:20.647Z,65.50
2017-08-29T22:01:49.015Z,66.70
2017-08-29T22:04:17.387Z,66.50
2017-08-29T22:06:45.744Z,66.30
2017-08-29T22:09:14.110Z,66.30
2017-08-29T22:11:42.406Z,66.50
2017-08-29T22:14:11.107Z,65.70
2017-08-29T22:16:39.485Z,66.30
2017-08-29T22:19:07.841Z,66.40
2017-08-29T22:21:36.145Z,66.50
2017-08-29T22:24:04.489Z,66.80
2017-08-29T22:26:32.824Z,67.50
2017-08-29T22:29:01.233Z,67.20
2017-08-29T22:31:29.546Z,67.30
2017-08-29T22:33:57.854Z,67.40
2017-08-29T22:36:26.230Z,67.70
2017-08-29T22:38:54.557Z,67.80
2017-08-29T22:41:22.898Z,68.00
2017-08-29T22:43:51.196Z,68.20
2017-08-29T22:46:19.506Z,68.20
2017-08-29T22:48:47.870Z,68.30
2017-08-29T22:51:16.164Z,68.20
2017-08-29T22:53:44.489Z,68.50
2017-08-29T22:56:12.841Z,68.50
2017-08-29T22:58:41.148Z,68.70
2017-08-29T23:01:09.484Z,69.00
2017-08-29T23:03:37.813Z,69.20
2017-08-29T23:06:06.149Z,69.30
2017-08-29T23:08:34.439Z,69.60
2017-08-29T23:11:02.764Z,69.90
2017-08-29T23:13:31.263Z,70.30
2017-08-29T23:15:59.562Z,71.10
2017-08-29T23:18:27.898Z,70.80
2017-08-29T23:20:56.190Z,70.80
2017-08-29T23:23:24.494Z,71.20
2017-08-29T23:25:52.825Z,71.80
2017-08-29T23:28:21.131Z,72.10
2017-08-29T23:30:49.458Z,72.00
2017-08-29T23:33:17.761Z,72.30
2017-08-29T23:35:46.093Z,72.40
2017-08-29T23:38:14.472Z,72.20
2017-08-29T23:40:42.789Z,72.60
2017-08-29T23:43:11.126Z,72.70
2017-08-29T23:45:39.502Z,72.90
2017-08-29T23:48:07.845Z,73.10
2017-08-29T23:50:36.177Z,73.20
2017-08-29T23:53:04.488Z,74.50
2017-08-29T23:55:32.790Z,74.00
2017-08-29T23:58:01.119Z,74.10
